createdAt,value
2018-12-10T00:01:02.809Z,28.07
2018-12-10T00:03:35.226Z,30.60
2018-12-10T00:06:03.301Z,10.70
2018-12-10T00:08:31.270Z,11.17
2018-12-10T00:10:59.322Z,27.03
2018-12-10T00:13:27.425Z,24.77
2018-12-10T00:15:55.471Z,20.33
2018-12-10T00:18:23.614Z,10.30
2018-12-10T00:20:51.660Z,15.97
2018-12-10T00:23:19.668Z,10.93
2018-12-10T00:25:47.819Z,12.07
2018-12-10T00:28:15.855Z,21.00
2018-12-10T00:30:43.885Z,10.00
2018-12-10T00:33:11.975Z,15.07
2018-12-10T00:35:40.053Z,14.47
2018-12-10T00:38:07.997Z,11.17
2018-12-10T00:40:36.173Z,15.43
2018-12-10T00:43:04.261Z,12.83
2018-12-10T00:45:32.309Z,10.17
2018-12-10T00:48:00.370Z,20.93
2018-12-10T00:50:28.395Z,27.27
2018-12-10T00:52:56.472Z,14.93
2018-12-10T00:55:24.516Z,10.40
2018-12-10T00:57:52.676Z,16.73
2018-12-10T01:00:20.771Z,23.47
2018-12-10T01:02:48.865Z,12.33
2018-12-10T01:05:17.074Z,16.63
2018-12-10T01:07:45.074Z,10.47
2018-12-10T01:10:13.215Z,14.00
2018-12-10T01:12:41.200Z,10.60
2018-12-10T01:15:09.169Z,14.97
2018-12-10T01:17:37.152Z,13.63
2018-12-10T01:20:05.689Z,25.57
2018-12-10T01:22:33.633Z,20.90
2018-12-10T01:25:01.708Z,13.73
2018-12-10T01:27:29.676Z,16.23
2018-12-10T01:29:57.694Z,14.40
2018-12-10T01:32:25.826Z,14.30
2018-12-10T01:34:53.805Z,17.93
2018-12-10T01:37:21.832Z,14.70
2018-12-10T01:39:49.891Z,28.77
2018-12-10T01:42:17.893Z,21.20
2018-12-10T01:44:45.924Z,15.37
2018-12-10T01:47:13.999Z,12.80
2018-12-10T01:49:41.995Z,17.23
2018-12-10T01:52:09.995Z,20.33
2018-12-10T01:54:37.986Z,15.67
2018-12-10T01:57:05.946Z,19.20
2018-12-10T01:59:33.907Z,16.93
2018-12-10T02:02:01.932Z,17.83
2018-12-10T02:04:29.885Z,29.27
2018-12-10T02:06:57.816Z,11.17
2018-12-10T02:09:25.856Z,25.30
2018-12-10T02:11:53.841Z,13.50
2018-12-10T02:14:21.851Z,11.67
2018-12-10T02:16:49.853Z,15.00
2018-12-10T02:19:17.808Z,13.00
2018-12-10T02:21:45.826Z,12.17
2018-12-10T02:24:13.878Z,16.13
2018-12-10T02:26:41.852Z,39.60
2018-12-10T02:29:14.314Z,30.37
2018-12-10T02:31:43.076Z,20.57
2018-12-10T02:34:11.093Z,13.87
2018-12-10T02:36:39.067Z,22.70
2018-12-10T02:39:06.996Z,17.83
2018-12-10T02:41:34.990Z,18.30
2018-12-10T02:44:03.028Z,19.73
2018-12-10T02:46:31.073Z,30.23
2018-12-10T02:48:59.179Z,29.90
2018-12-10T02:51:27.205Z,27.30
2018-12-10T02:53:55.216Z,41.93
2018-12-10T02:56:23.355Z,19.47
2018-12-10T02:58:51.384Z,29.97
2018-12-10T03:01:19.337Z,54.00
2018-12-10T03:03:47.477Z,15.20
2018-12-10T03:06:15.482Z,27.33
2018-12-10T03:08:43.397Z,31.53
2018-12-10T03:11:11.465Z,22.80
2018-12-10T03:13:39.511Z,26.93
2018-12-10T03:16:07.660Z,23.63
2018-12-10T03:18:35.638Z,25.83
2018-12-10T03:21:03.606Z,26.73
2018-12-10T03:23:31.574Z,28.40
2018-12-10T03:25:59.578Z,17.77
2018-12-10T03:28:27.549Z,13.37
2018-12-10T03:30:55.688Z,22.77
2018-12-10T03:33:23.653Z,17.60
2018-12-10T03:35:51.653Z,14.17
2018-12-10T03:38:19.587Z,23.40
2018-12-10T03:40:47.590Z,23.53
2018-12-10T03:43:15.767Z,11.93
2018-12-10T03:45:43.775Z,32.40
2018-12-10T03:48:11.812Z,10.53
2018-12-10T03:50:39.874Z,12.90
2018-12-10T03:53:07.799Z,26.67
2018-12-10T03:55:35.768Z,17.47
2018-12-10T03:58:03.789Z,27.00
2018-12-10T04:00:31.778Z,21.27
2018-12-10T04:02:59.733Z,38.33
2018-12-10T04:05:27.741Z,36.57
2018-12-10T04:07:55.765Z,29.27
2018-12-10T04:10:23.747Z,33.63
2018-12-10T04:12:51.737Z,37.40
2018-12-10T04:15:19.852Z,33.63
2018-12-10T04:17:48.070Z,23.13
2018-12-10T04:20:16.020Z,29.03
2018-12-10T04:22:45.116Z,20.67
2018-12-10T04:25:13.226Z,32.03
2018-12-10T04:27:42.071Z,27.97
2018-12-10T04:30:10.055Z,37.70
2018-12-10T04:32:38.106Z,26.70
2018-12-10T04:35:06.152Z,24.90
2018-12-10T04:37:34.169Z,35.43
2018-12-10T04:40:02.158Z,21.07
2018-12-10T04:42:30.154Z,12.10
2018-12-10T04:44:58.126Z,11.73
2018-12-10T04:47:26.133Z,29.77
2018-12-10T04:49:54.134Z,15.53
2018-12-10T04:52:22.106Z,23.07
2018-12-10T04:54:50.084Z,55.17
2018-12-10T04:57:18.089Z,25.47
2018-12-10T04:59:52.690Z,12.20
2018-12-10T05:02:16.295Z,28.40
2018-12-10T05:04:44.547Z,14.50
2018-12-10T05:07:12.911Z,27.70
2018-12-10T05:09:41.048Z,24.33
2018-12-10T05:12:09.250Z,8.57
2018-12-10T05:14:37.407Z,20.87
2018-12-10T05:17:05.700Z,21.27
2018-12-10T05:19:33.955Z,54.07
2018-12-10T05:22:02.012Z,42.43
2018-12-10T05:24:30.278Z,17.40
2018-12-10T05:26:58.484Z,11.07
2018-12-10T05:29:26.569Z,10.67
2018-12-10T05:31:54.730Z,10.30
2018-12-10T05:34:22.882Z,10.43
2018-12-10T05:36:50.905Z,10.90
2018-12-10T05:39:19.813Z,9.47
2018-12-10T05:41:48.060Z,7.17
2018-12-10T05:44:16.231Z,11.67
2018-12-10T05:46:44.441Z,12.63
2018-12-10T05:49:12.568Z,24.83
2018-12-10T05:51:40.686Z,11.07
2018-12-10T05:54:08.815Z,15.17
2018-12-10T05:56:36.940Z,15.10
2018-12-10T05:59:05.141Z,14.00
2018-12-10T06:01:33.409Z,25.10
2018-12-10T06:04:01.878Z,11.37
2018-12-10T06:06:30.785Z,9.70
2018-12-10T06:08:59.411Z,8.93
2018-12-10T06:11:27.972Z,12.07
2018-12-10T06:13:58.529Z,12.37
2018-12-10T06:16:26.965Z,10.23
2018-12-10T06:18:55.288Z,8.17
2018-12-10T06:21:23.690Z,7.60
2018-12-10T06:23:52.117Z,8.37
2018-12-10T06:26:20.519Z,8.50
2018-12-10T06:28:48.867Z,9.27
2018-12-10T06:31:17.347Z,9.47
2018-12-10T06:33:45.606Z,8.57
2018-12-10T06:36:14.064Z,6.97
2018-12-10T06:38:42.136Z,7.97
2018-12-10T06:41:10.346Z,5.40
2018-12-10T06:43:38.585Z,7.03
2018-12-10T06:46:06.803Z,8.03
2018-12-10T06:48:35.022Z,7.50
2018-12-10T06:51:03.147Z,7.83
2018-12-10T06:53:31.770Z,7.77
2018-12-10T06:56:00.208Z,7.17
2018-12-10T06:58:28.431Z,6.90
2018-12-10T07:00:56.787Z,6.63
2018-12-10T07:03:25.213Z,4.20
2018-12-10T07:05:53.854Z,8.27
2018-12-10T07:08:22.360Z,8.60
2018-12-10T07:10:50.830Z,5.87
2018-12-10T07:13:19.403Z,5.63
2018-12-10T07:15:48.111Z,10.43
2018-12-10T07:18:16.456Z,6.67
2018-12-10T07:20:44.884Z,6.27
2018-12-10T07:23:13.083Z,5.97
2018-12-10T07:25:41.322Z,3.20
2018-12-10T07:28:09.606Z,6.47
2018-12-10T07:30:41.437Z,7.43
2018-12-10T07:33:08.053Z,5.63
2018-12-10T07:35:36.293Z,6.90
2018-12-10T07:38:04.566Z,7.80
2018-12-10T07:40:32.844Z,6.07
2018-12-10T07:43:01.120Z,4.63
2018-12-10T07:45:29.312Z,6.63
2018-12-10T07:47:57.611Z,8.07
2018-12-10T07:50:25.787Z,4.50
2018-12-10T07:52:53.961Z,6.70
2018-12-10T07:55:22.404Z,6.50
2018-12-10T07:57:52.892Z,5.90
2018-12-10T08:00:21.067Z,6.40
2018-12-10T08:02:49.287Z,7.07
2018-12-10T08:05:17.520Z,7.67
2018-12-10T08:07:45.927Z,5.13
2018-12-10T08:10:14.313Z,7.23
2018-12-10T08:12:42.553Z,5.13
2018-12-10T08:15:10.779Z,4.83
2018-12-10T08:17:39.008Z,7.97
2018-12-10T08:20:07.165Z,6.73
2018-12-10T08:22:35.408Z,6.30
2018-12-10T08:25:03.837Z,4.43
2018-12-10T08:27:32.026Z,4.13
2018-12-10T08:30:00.285Z,4.20
2018-12-10T08:32:28.686Z,5.80
2018-12-10T08:34:57.174Z,6.83
2018-12-10T08:37:25.447Z,4.23
2018-12-10T08:39:53.515Z,5.17
2018-12-10T08:42:21.527Z,6.77
2018-12-10T08:44:49.476Z,7.17
2018-12-10T08:47:17.639Z,5.73
2018-12-10T08:49:45.738Z,5.70
2018-12-10T08:52:14.538Z,6.73
2018-12-10T08:54:42.740Z,5.83
2018-12-10T08:57:11.158Z,6.30
2018-12-10T08:59:39.557Z,8.10
2018-12-10T09:02:07.704Z,4.57
2018-12-10T09:04:36.697Z,7.20
2018-12-10T09:07:05.049Z,7.07
2018-12-10T09:09:33.141Z,6.37
2018-12-10T09:12:01.221Z,6.33
2018-12-10T09:14:29.663Z,5.40
2018-12-10T09:16:57.988Z,5.53
2018-12-10T09:19:26.452Z,7.40
2018-12-10T09:21:54.765Z,7.30
2018-12-10T09:24:23.042Z,7.70
2018-12-10T09:26:51.867Z,7.37
2018-12-10T09:29:20.426Z,7.23
2018-12-10T09:31:49.089Z,5.80
2018-12-10T09:34:17.479Z,6.50
2018-12-10T09:36:45.819Z,6.47
2018-12-10T09:39:14.870Z,6.97
2018-12-10T09:41:43.168Z,5.23
2018-12-10T09:44:11.581Z,7.50
2018-12-10T09:46:40.282Z,5.77
2018-12-10T09:49:08.666Z,6.77
2018-12-10T09:51:37.067Z,7.03
2018-12-10T09:54:05.287Z,7.60
2018-12-10T09:56:33.565Z,5.10
2018-12-10T09:59:02.201Z,6.07
2018-12-10T10:01:30.271Z,7.17
2018-12-10T10:03:58.464Z,6.00
2018-12-10T10:06:43.921Z,7.27
2018-12-10T10:09:12.102Z,7.27
2018-12-10T10:11:40.225Z,5.90
2018-12-10T10:14:08.388Z,5.87
2018-12-10T10:16:36.489Z,5.90
2018-12-10T10:19:04.565Z,6.47
2018-12-10T10:21:33.092Z,5.37
2018-12-10T10:24:01.295Z,6.17
2018-12-10T10:26:29.539Z,4.47
2018-12-10T10:28:57.538Z,4.93
2018-12-10T10:31:25.486Z,6.83
2018-12-10T10:33:53.467Z,7.40
2018-12-10T10:36:21.553Z,6.10
2018-12-10T10:38:49.609Z,4.80
2018-12-10T10:41:17.636Z,6.33
2018-12-10T10:43:45.826Z,5.13
2018-12-10T10:46:14.069Z,5.47
2018-12-10T10:48:42.309Z,6.57
2018-12-10T10:51:10.391Z,6.57
2018-12-10T10:53:38.585Z,4.50
2018-12-10T10:56:06.586Z,5.50
2018-12-10T10:58:34.579Z,5.50
2018-12-10T11:01:08.050Z,6.13
2018-12-10T11:03:37.305Z,5.37
2018-12-10T11:06:06.519Z,6.40
2018-12-10T11:08:34.711Z,4.40
2018-12-10T11:11:02.861Z,6.00
2018-12-10T11:13:30.966Z,4.63
2018-12-10T11:15:59.241Z,5.93
2018-12-10T11:18:27.678Z,4.80
2018-12-10T11:20:56.066Z,6.40
2018-12-10T11:23:24.479Z,4.77
2018-12-10T11:25:52.393Z,4.00
2018-12-10T11:28:20.439Z,8.63
2018-12-10T11:30:48.601Z,5.40
2018-12-10T11:33:17.013Z,6.47
2018-12-10T11:35:45.736Z,5.97
2018-12-10T11:38:13.764Z,4.23
2018-12-10T11:40:41.827Z,5.87
2018-12-10T11:43:10.001Z,6.27
2018-12-10T11:45:38.115Z,6.97
2018-12-10T11:48:06.142Z,4.87
2018-12-10T11:50:34.737Z,5.03
2018-12-10T11:53:02.766Z,5.53
2018-12-10T11:55:30.666Z,5.23
2018-12-10T11:57:58.647Z,6.10
2018-12-10T12:00:26.945Z,4.93
2018-12-10T12:02:54.873Z,6.20
2018-12-10T12:05:22.870Z,5.50
2018-12-10T12:07:50.943Z,4.83
2018-12-10T12:10:18.877Z,5.50
2018-12-10T12:12:46.927Z,7.37
2018-12-10T12:15:15.736Z,5.63
2018-12-10T12:17:43.843Z,4.27
2018-12-10T12:20:12.041Z,6.80
2018-12-10T12:22:40.333Z,6.33
2018-12-10T12:25:08.298Z,5.07
2018-12-10T12:27:36.827Z,5.00
2018-12-10T12:30:06.020Z,4.77
2018-12-10T12:32:34.715Z,6.60
2018-12-10T12:35:03.026Z,5.43
2018-12-10T12:37:31.466Z,4.87
2018-12-10T12:39:59.504Z,6.23
2018-12-10T12:42:27.631Z,9.43
2018-12-10T12:44:55.616Z,6.63
2018-12-10T12:47:23.559Z,5.27
2018-12-10T12:49:51.605Z,6.13
2018-12-10T12:52:19.662Z,5.13
2018-12-10T12:54:47.575Z,6.80
2018-12-10T12:57:15.541Z,8.33
2018-12-10T12:59:43.579Z,5.43
2018-12-10T13:02:11.663Z,7.40
2018-12-10T13:04:39.640Z,5.73
2018-12-10T13:07:08.022Z,6.33
2018-12-10T13:09:36.018Z,6.13
2018-12-10T13:12:04.023Z,6.83
2018-12-10T13:14:32.227Z,6.13
2018-12-10T13:17:00.270Z,7.83
2018-12-10T13:19:29.733Z,12.40
2018-12-10T13:21:57.992Z,8.50
2018-12-10T13:24:26.192Z,8.03
2018-12-10T13:26:54.368Z,5.97
2018-12-10T13:29:30.997Z,8.43
2018-12-10T13:31:59.781Z,7.00
2018-12-10T13:34:28.084Z,6.63
2018-12-10T13:36:56.270Z,11.10
2018-12-10T13:39:24.536Z,7.13
2018-12-10T13:41:52.814Z,9.90
2018-12-10T13:44:20.991Z,15.37
2018-12-10T13:46:49.217Z,11.87
2018-12-10T13:49:17.485Z,11.47
2018-12-10T13:51:45.693Z,10.47
2018-12-10T13:54:13.868Z,9.40
2018-12-10T13:56:42.409Z,7.67
2018-12-10T13:59:11.207Z,8.73
2018-12-10T14:01:39.578Z,10.40
2018-12-10T14:04:12.964Z,14.27
2018-12-10T14:06:41.294Z,9.13
2018-12-10T14:09:09.567Z,13.90
2018-12-10T14:11:38.358Z,17.57
2018-12-10T14:14:08.378Z,14.27
2018-12-10T14:16:36.699Z,19.53
2018-12-10T14:19:05.354Z,13.70
2018-12-10T14:21:33.681Z,12.93
2018-12-10T14:24:01.879Z,13.33
2018-12-10T14:26:30.122Z,16.57
2018-12-10T14:28:58.268Z,11.63
2018-12-10T14:31:27.443Z,13.10
2018-12-10T14:33:57.711Z,15.97
2018-12-10T14:36:25.624Z,9.47
2018-12-10T14:38:54.167Z,13.77
2018-12-10T14:41:22.266Z,11.17
2018-12-10T14:43:50.215Z,13.23
2018-12-10T14:46:18.289Z,10.00
2018-12-10T14:48:46.314Z,10.73
2018-12-10T14:51:14.243Z,7.00
2018-12-10T14:53:42.224Z,5.43
2018-12-10T14:56:10.326Z,6.40
2018-12-10T14:58:38.569Z,6.90
2018-12-10T15:01:06.596Z,5.80
2018-12-10T15:03:34.614Z,5.80
2018-12-10T15:06:03.054Z,8.53
2018-12-10T15:08:31.213Z,8.20
2018-12-10T15:10:59.431Z,3.73
2018-12-10T15:13:27.627Z,8.17
2018-12-10T15:15:55.858Z,6.50
2018-12-10T15:18:24.168Z,4.30
2018-12-10T15:20:52.296Z,7.63
2018-12-10T15:23:20.273Z,5.37
2018-12-10T15:25:48.625Z,5.97
2018-12-10T15:28:16.601Z,6.40
2018-12-10T15:30:44.626Z,5.23
2018-12-10T15:33:12.732Z,6.10
2018-12-10T15:35:41.043Z,7.47
2018-12-10T15:38:09.523Z,5.77
2018-12-10T15:40:37.930Z,7.10
2018-12-10T15:43:06.115Z,5.37
2018-12-10T15:45:34.388Z,3.20
2018-12-10T15:48:02.875Z,4.53
2018-12-10T15:50:30.929Z,4.03
2018-12-10T15:52:59.128Z,3.73
2018-12-10T15:55:27.326Z,3.90
2018-12-10T15:57:55.243Z,4.67
2018-12-10T16:00:23.283Z,4.10
2018-12-10T16:02:51.450Z,3.97
2018-12-10T16:05:19.535Z,5.77
2018-12-10T16:07:47.675Z,6.13
2018-12-10T16:10:15.749Z,3.90
2018-12-10T16:12:43.775Z,3.07
2018-12-10T16:15:11.786Z,5.20
2018-12-10T16:17:40.662Z,5.70
2018-12-10T16:20:09.339Z,3.93
2018-12-10T16:22:37.799Z,4.43
2018-12-10T16:25:06.171Z,6.10
2018-12-10T16:27:34.574Z,6.00
2018-12-10T16:30:02.926Z,4.17
2018-12-10T16:32:31.789Z,6.13
2018-12-10T16:34:59.955Z,4.07
2018-12-10T16:37:28.140Z,4.53
2018-12-10T16:39:56.322Z,6.43
2018-12-10T16:42:24.711Z,5.30
2018-12-10T16:44:52.806Z,4.87
2018-12-10T16:47:20.753Z,4.97
2018-12-10T16:49:48.761Z,5.63
2018-12-10T16:52:16.857Z,5.67
2018-12-10T16:54:45.000Z,6.43
2018-12-10T16:57:13.365Z,6.73
2018-12-10T16:59:41.555Z,7.73
2018-12-10T17:02:10.818Z,8.63
2018-12-10T17:04:39.114Z,5.57
2018-12-10T17:07:07.359Z,6.43
2018-12-10T17:09:35.987Z,8.80
2018-12-10T17:12:04.682Z,6.90
2018-12-10T17:14:32.977Z,8.53
2018-12-10T17:17:01.290Z,8.20
2018-12-10T17:19:29.840Z,7.43
2018-12-10T17:21:59.570Z,6.07
2018-12-10T17:24:27.816Z,6.50
2018-12-10T17:26:56.053Z,7.67
2018-12-10T17:29:25.803Z,8.00
2018-12-10T17:31:55.245Z,7.13
2018-12-10T17:34:23.429Z,5.80
2018-12-10T17:36:51.610Z,7.43
2018-12-10T17:39:20.001Z,6.40
2018-12-10T17:41:48.134Z,5.20
2018-12-10T17:44:16.337Z,4.50
2018-12-10T17:46:44.595Z,4.80
2018-12-10T17:49:12.878Z,8.57
2018-12-10T17:51:41.197Z,7.53
2018-12-10T17:54:10.236Z,6.90
2018-12-10T17:56:38.845Z,7.40
2018-12-10T17:59:07.296Z,7.63
2018-12-10T18:01:35.518Z,6.13
2018-12-10T18:04:03.770Z,7.50
2018-12-10T18:06:31.883Z,7.40
2018-12-10T18:09:00.305Z,8.83
2018-12-10T18:11:28.682Z,8.93
2018-12-10T18:13:57.024Z,8.13
2018-12-10T18:16:25.167Z,8.70
2018-12-10T18:18:53.678Z,6.40
2018-12-10T18:21:21.712Z,7.47
2018-12-10T18:23:49.912Z,6.63
2018-12-10T18:26:18.157Z,6.77
2018-12-10T18:28:46.367Z,6.67
2018-12-10T18:31:14.513Z,5.70
2018-12-10T18:33:42.912Z,6.27
2018-12-10T18:36:12.060Z,6.50
2018-12-10T18:38:40.240Z,7.70
2018-12-10T18:41:08.273Z,8.13
2018-12-10T18:43:36.315Z,7.70
2018-12-10T18:46:04.520Z,9.80
2018-12-10T18:48:33.079Z,6.67
2018-12-10T18:51:01.172Z,8.43
2018-12-10T18:53:29.266Z,9.00
2018-12-10T18:55:57.497Z,4.53
2018-12-10T18:58:25.599Z,4.00
2018-12-10T19:00:53.670Z,6.17
2018-12-10T19:03:21.708Z,4.93
2018-12-10T19:05:49.931Z,4.03
2018-12-10T19:08:18.608Z,5.20
2018-12-10T19:10:46.846Z,4.23
2018-12-10T19:13:14.908Z,6.57
2018-12-10T19:15:43.152Z,5.93
2018-12-10T19:18:11.289Z,4.70
2018-12-10T19:20:39.505Z,5.27
2018-12-10T19:23:07.736Z,6.50
2018-12-10T19:25:35.975Z,5.13
2018-12-10T19:28:04.436Z,8.77
2018-12-10T19:30:33.003Z,8.43
2018-12-10T19:33:01.252Z,4.60
2018-12-10T19:35:29.721Z,5.10
2018-12-10T19:37:57.878Z,5.00
2018-12-10T19:40:25.989Z,4.10
2018-12-10T19:42:54.264Z,5.27
2018-12-10T19:45:22.618Z,4.73
2018-12-10T19:47:51.073Z,3.77
2018-12-10T19:50:19.729Z,4.00
2018-12-10T19:52:48.019Z,4.67
2018-12-10T19:55:16.919Z,5.13
2018-12-10T19:57:44.944Z,5.90
2018-12-10T20:00:13.307Z,8.57
2018-12-10T20:02:41.531Z,5.40
2018-12-10T20:05:09.647Z,3.77
2018-12-10T20:07:37.899Z,4.27
2018-12-10T20:10:07.876Z,8.90
2018-12-10T20:12:36.519Z,5.30
2018-12-10T20:15:06.407Z,5.60
2018-12-10T20:17:34.533Z,5.10
2018-12-10T20:20:03.015Z,5.67
2018-12-10T20:22:31.206Z,6.53
2018-12-10T20:24:59.357Z,5.13
2018-12-10T20:27:27.648Z,5.17
2018-12-10T20:29:56.076Z,5.23
2018-12-10T20:32:24.328Z,5.90
2018-12-10T20:34:52.613Z,3.67
2018-12-10T20:37:21.139Z,4.20
2018-12-10T20:39:49.422Z,5.33
2018-12-10T20:42:17.735Z,9.53
2018-12-10T20:44:46.068Z,8.80
2018-12-10T20:47:14.160Z,5.70
2018-12-10T20:49:42.276Z,4.90
2018-12-10T20:52:10.657Z,5.90
2018-12-10T20:54:39.193Z,4.83
2018-12-10T20:57:07.370Z,6.10
2018-12-10T20:59:35.703Z,5.27
2018-12-10T21:02:03.886Z,4.17
2018-12-10T21:04:32.051Z,4.97
2018-12-10T21:07:00.190Z,4.27
2018-12-10T21:09:28.319Z,9.30
2018-12-10T21:11:56.662Z,4.20
2018-12-10T21:14:24.821Z,3.50
2018-12-10T21:16:52.921Z,4.83
2018-12-10T21:19:21.362Z,4.57
2018-12-10T21:21:49.524Z,4.80
2018-12-10T21:24:17.543Z,5.63
2018-12-10T21:26:45.710Z,6.03
2018-12-10T21:29:13.926Z,5.03
2018-12-10T21:31:42.551Z,6.90
2018-12-10T21:34:10.870Z,9.17
2018-12-10T21:36:38.980Z,3.47
2018-12-10T21:39:07.969Z,3.90
2018-12-10T21:41:36.028Z,3.50
2018-12-10T21:44:05.002Z,1.97
2018-12-10T21:46:33.076Z,3.37
2018-12-10T21:49:01.052Z,2.93
2018-12-10T21:51:29.079Z,4.20
2018-12-10T21:53:57.089Z,5.30
2018-12-10T21:56:25.111Z,5.10
2018-12-10T21:58:53.090Z,3.47
2018-12-10T22:01:21.141Z,3.80
2018-12-10T22:03:49.137Z,3.70
2018-12-10T22:06:17.220Z,3.60
2018-12-10T22:08:45.321Z,5.63
2018-12-10T22:11:13.305Z,3.60
2018-12-10T22:13:41.296Z,2.57
2018-12-10T22:16:09.388Z,2.93
2018-12-10T22:18:37.384Z,2.57
2018-12-10T22:21:05.460Z,3.20
2018-12-10T22:23:33.637Z,2.67
2018-12-10T22:26:01.615Z,3.97
2018-12-10T22:28:29.580Z,3.17
2018-12-10T22:30:57.574Z,6.40
2018-12-10T22:33:25.508Z,3.37
2018-12-10T22:35:53.522Z,3.70
2018-12-10T22:38:21.505Z,2.67
2018-12-10T22:40:49.487Z,2.90
2018-12-10T22:43:17.438Z,3.97
2018-12-10T22:45:45.404Z,4.23
2018-12-10T22:48:13.339Z,4.17
2018-12-10T22:50:41.314Z,4.97
2018-12-10T22:53:09.312Z,3.07
2018-12-10T22:55:37.288Z,3.57
2018-12-10T22:58:05.313Z,2.13
2018-12-10T23:00:38.900Z,2.90
2018-12-10T23:03:06.922Z,3.30
2018-12-10T23:05:34.897Z,3.33
2018-12-10T23:08:02.947Z,1.97
2018-12-10T23:10:30.926Z,3.77
2018-12-10T23:12:58.905Z,3.03
2018-12-10T23:15:26.930Z,2.13
2018-12-10T23:17:54.850Z,2.67
2018-12-10T23:20:22.824Z,3.43
2018-12-10T23:22:50.820Z,2.50
2018-12-10T23:25:18.791Z,2.87
2018-12-10T23:27:46.752Z,2.07
2018-12-10T23:30:14.774Z,2.30
2018-12-10T23:32:42.768Z,2.87
2018-12-10T23:35:10.819Z,2.87
2018-12-10T23:37:39.013Z,3.07
2018-12-10T23:40:07.059Z,3.17
2018-12-10T23:42:35.197Z,2.27
2018-12-10T23:45:03.268Z,1.73
2018-12-10T23:47:31.319Z,4.00
2018-12-10T23:49:59.321Z,3.20
2018-12-10T23:52:27.362Z,3.67
2018-12-10T23:54:55.351Z,3.03
2018-12-10T23:57:23.310Z,1.73
2018-12-10T23:59:51.296Z,4.10
